sensor_id;sensor_type;location;lat;lon;timestamp;P1;durP1;ratioP1;P2;durP2;ratioP2
80694;SDS011;70059;42.702;23.312;2024-03-29T00:00:41;6.68;;;4.70;;
80694;SDS011;70059;42.702;23.312;2024-03-29T00:03:09;5.00;;;4.50;;
80694;SDS011;70059;42.702;23.312;2024-03-29T00:05:35;4.82;;;4.43;;
80694;SDS011;70059;42.702;23.312;2024-03-29T00:08:01;7.05;;;4.60;;
80694;SDS011;70059;42.702;23.312;2024-03-29T00:10:28;4.97;;;4.55;;
80694;SDS011;70059;42.702;23.312;2024-03-29T00:12:54;5.45;;;4.65;;
80694;SDS011;70059;42.702;23.312;2024-03-29T00:15:21;5.30;;;4.32;;
80694;SDS011;70059;42.702;23.312;2024-03-29T00:17:46;5.28;;;4.20;;
80694;SDS011;70059;42.702;23.312;2024-03-29T00:20:12;4.65;;;3.97;;
80694;SDS011;70059;42.702;23.312;2024-03-29T00:22:38;4.90;;;4.40;;
80694;SDS011;70059;42.702;23.312;2024-03-29T00:25:04;5.00;;;4.25;;
80694;SDS011;70059;42.702;23.312;2024-03-29T00:27:30;7.18;;;4.60;;
80694;SDS011;70059;42.702;23.312;2024-03-29T00:29:56;5.63;;;4.90;;
80694;SDS011;70059;42.702;23.312;2024-03-29T00:32:22;4.82;;;4.30;;
80694;SDS011;70059;42.702;23.312;2024-03-29T00:34:49;4.57;;;4.28;;
80694;SDS011;70059;42.702;23.312;2024-03-29T00:37:16;4.53;;;4.20;;
80694;SDS011;70059;42.702;23.312;2024-03-29T00:39:42;5.38;;;4.20;;
80694;SDS011;70059;42.702;23.312;2024-03-29T00:42:08;5.28;;;4.05;;
80694;SDS011;70059;42.702;23.312;2024-03-29T00:44:35;6.10;;;4.70;;
80694;SDS011;70059;42.702;23.312;2024-03-29T00:47:03;9.52;;;4.30;;
80694;SDS011;70059;42.702;23.312;2024-03-29T00:49:29;4.55;;;4.13;;
80694;SDS011;70059;42.702;23.312;2024-03-29T00:51:55;4.50;;;4.10;;
80694;SDS011;70059;42.702;23.312;2024-03-29T00:54:20;4.32;;;4.03;;
80694;SDS011;70059;42.702;23.312;2024-03-29T00:56:48;4.80;;;4.28;;
80694;SDS011;70059;42.702;23.312;2024-03-29T00:59:14;4.57;;;4.20;;
80694;SDS011;70059;42.702;23.312;2024-03-29T01:01:40;6.60;;;4.28;;
80694;SDS011;70059;42.702;23.312;2024-03-29T01:04:05;4.32;;;3.92;;
80694;SDS011;70059;42.702;23.312;2024-03-29T01:06:31;4.93;;;4.50;;
80694;SDS011;70059;42.702;23.312;2024-03-29T01:08:57;5.78;;;4.30;;
80694;SDS011;70059;42.702;23.312;2024-03-29T01:11:23;4.70;;;4.30;;
80694;SDS011;70059;42.702;23.312;2024-03-29T01:13:48;4.70;;;4.30;;
80694;SDS011;70059;42.702;23.312;2024-03-29T01:16:14;7.78;;;4.68;;
80694;SDS011;70059;42.702;23.312;2024-03-29T01:18:40;6.00;;;4.30;;
80694;SDS011;70059;42.702;23.312;2024-03-29T01:21:08;4.93;;;4.15;;
80694;SDS011;70059;42.702;23.312;2024-03-29T01:23:34;5.25;;;4.10;;
80694;SDS011;70059;42.702;23.312;2024-03-29T01:26:00;4.30;;;4.10;;
80694;SDS011;70059;42.702;23.312;2024-03-29T01:28:26;4.90;;;4.30;;
80694;SDS011;70059;42.702;23.312;2024-03-29T01:30:54;4.63;;;4.10;;
80694;SDS011;70059;42.702;23.312;2024-03-29T01:33:20;4.50;;;4.10;;
80694;SDS011;70059;42.702;23.312;2024-03-29T01:35:46;4.63;;;4.30;;
80694;SDS011;70059;42.702;23.312;2024-03-29T01:38:12;4.70;;;4.30;;
80694;SDS011;70059;42.702;23.312;2024-03-29T01:40:39;7.13;;;4.40;;
80694;SDS011;70059;42.702;23.312;2024-03-29T01:43:05;4.60;;;4.20;;
80694;SDS011;70059;42.702;23.312;2024-03-29T01:45:34;4.80;;;4.25;;
80694;SDS011;70059;42.702;23.312;2024-03-29T01:48:03;4.70;;;4.30;;
80694;SDS011;70059;42.702;23.312;2024-03-29T01:50:30;4.88;;;4.40;;
80694;SDS011;70059;42.702;23.312;2024-03-29T01:52:56;4.50;;;4.20;;
80694;SDS011;70059;42.702;23.312;2024-03-29T01:55:22;4.93;;;4.53;;
80694;SDS011;70059;42.702;23.312;2024-03-29T01:57:48;5.78;;;4.38;;
80694;SDS011;70059;42.702;23.312;2024-03-29T02:00:15;4.63;;;4.20;;
80694;SDS011;70059;42.702;23.312;2024-03-29T02:02:41;5.28;;;4.30;;
80694;SDS011;70059;42.702;23.312;2024-03-29T02:05:07;4.60;;;4.30;;
80694;SDS011;70059;42.702;23.312;2024-03-29T02:07:33;5.00;;;4.57;;
80694;SDS011;70059;42.702;23.312;2024-03-29T02:10:00;5.45;;;4.63;;
80694;SDS011;70059;42.702;23.312;2024-03-29T02:12:26;4.80;;;4.40;;
80694;SDS011;70059;42.702;23.312;2024-03-29T02:14:52;4.85;;;4.47;;
80694;SDS011;70059;42.702;23.312;2024-03-29T02:17:18;5.07;;;4.47;;
80694;SDS011;70059;42.702;23.312;2024-03-29T02:19:43;4.70;;;4.35;;
80694;SDS011;70059;42.702;23.312;2024-03-29T02:22:09;6.18;;;4.40;;
80694;SDS011;70059;42.702;23.312;2024-03-29T02:24:40;9.18;;;4.30;;
80694;SDS011;70059;42.702;23.312;2024-03-29T02:27:05;6.65;;;4.07;;
80694;SDS011;70059;42.702;23.312;2024-03-29T02:29:31;4.38;;;3.97;;
80694;SDS011;70059;42.702;23.312;2024-03-29T02:31:57;4.95;;;4.28;;
80694;SDS011;70059;42.702;23.312;2024-03-29T02:34:22;5.05;;;4.32;;
80694;SDS011;70059;42.702;23.312;2024-03-29T02:36:48;5.53;;;4.30;;
80694;SDS011;70059;42.702;23.312;2024-03-29T02:39:14;4.70;;;4.40;;
80694;SDS011;70059;42.702;23.312;2024-03-29T02:41:40;5.30;;;4.30;;
80694;SDS011;70059;42.702;23.312;2024-03-29T02:44:05;4.97;;;4.10;;
80694;SDS011;70059;42.702;23.312;2024-03-29T02:46:31;4.70;;;4.30;;
80694;SDS011;70059;42.702;23.312;2024-03-29T02:48:57;5.65;;;4.50;;
80694;SDS011;70059;42.702;23.312;2024-03-29T02:51:22;4.30;;;4.00;;
80694;SDS011;70059;42.702;23.312;2024-03-29T02:53:48;4.70;;;4.13;;
80694;SDS011;70059;42.702;23.312;2024-03-29T02:56:14;4.25;;;4.03;;
80694;SDS011;70059;42.702;23.312;2024-03-29T02:58:43;5.40;;;4.32;;
80694;SDS011;70059;42.702;23.312;2024-03-29T03:01:09;4.50;;;4.10;;
80694;SDS011;70059;42.702;23.312;2024-03-29T03:03:35;4.68;;;4.28;;
80694;SDS011;70059;42.702;23.312;2024-03-29T03:06:01;5.90;;;4.55;;
80694;SDS011;70059;42.702;23.312;2024-03-29T03:08:30;4.55;;;4.25;;
80694;SDS011;70059;42.702;23.312;2024-03-29T03:11:15;5.72;;;4.60;;
80694;SDS011;70059;42.702;23.312;2024-03-29T03:13:40;8.85;;;4.43;;
80694;SDS011;70059;42.702;23.312;2024-03-29T03:16:06;4.75;;;4.30;;
80694;SDS011;70059;42.702;23.312;2024-03-29T03:18:32;7.15;;;4.40;;
80694;SDS011;70059;42.702;23.312;2024-03-29T03:20:59;5.25;;;4.50;;
80694;SDS011;70059;42.702;23.312;2024-03-29T03:23:25;4.90;;;4.50;;
80694;SDS011;70059;42.702;23.312;2024-03-29T03:25:57;5.57;;;4.70;;
80694;SDS011;70059;42.702;23.312;2024-03-29T03:28:23;7.00;;;4.63;;
80694;SDS011;70059;42.702;23.312;2024-03-29T03:30:50;6.60;;;4.60;;
80694;SDS011;70059;42.702;23.312;2024-03-29T03:33:16;5.55;;;4.40;;
80694;SDS011;70059;42.702;23.312;2024-03-29T03:35:42;7.03;;;4.97;;
80694;SDS011;70059;42.702;23.312;2024-03-29T03:38:08;5.43;;;4.60;;
80694;SDS011;70059;42.702;23.312;2024-03-29T03:40:34;5.03;;;4.60;;
80694;SDS011;70059;42.702;23.312;2024-03-29T03:43:04;5.75;;;4.75;;
80694;SDS011;70059;42.702;23.312;2024-03-29T03:45:36;5.50;;;4.95;;
80694;SDS011;70059;42.702;23.312;2024-03-29T03:48:04;5.03;;;4.53;;
80694;SDS011;70059;42.702;23.312;2024-03-29T03:50:31;6.95;;;5.13;;
80694;SDS011;70059;42.702;23.312;2024-03-29T03:52:58;6.80;;;4.70;;
80694;SDS011;70059;42.702;23.312;2024-03-29T03:55:24;13.18;;;5.55;;
80694;SDS011;70059;42.702;23.312;2024-03-29T03:57:50;23.38;;;13.02;;
80694;SDS011;70059;42.702;23.312;2024-03-29T04:00:17;7.13;;;4.88;;
80694;SDS011;70059;42.702;23.312;2024-03-29T04:02:48;6.55;;;4.80;;
80694;SDS011;70059;42.702;23.312;2024-03-29T04:05:15;7.68;;;5.05;;
80694;SDS011;70059;42.702;23.312;2024-03-29T04:07:44;5.63;;;4.90;;
80694;SDS011;70059;42.702;23.312;2024-03-29T04:10:10;9.10;;;4.93;;
80694;SDS011;70059;42.702;23.312;2024-03-29T04:12:36;4.97;;;4.57;;
80694;SDS011;70059;42.702;23.312;2024-03-29T04:15:02;5.60;;;4.82;;
80694;SDS011;70059;42.702;23.312;2024-03-29T04:17:29;9.45;;;4.85;;
80694;SDS011;70059;42.702;23.312;2024-03-29T04:19:58;10.55;;;5.70;;
80694;SDS011;70059;42.702;23.312;2024-03-29T04:22:25;14.15;;;8.48;;
80694;SDS011;70059;42.702;23.312;2024-03-29T04:24:52;14.85;;;7.10;;
80694;SDS011;70059;42.702;23.312;2024-03-29T04:27:18;5.82;;;5.03;;
80694;SDS011;70059;42.702;23.312;2024-03-29T04:29:44;10.32;;;5.18;;
80694;SDS011;70059;42.702;23.312;2024-03-29T04:32:10;10.50;;;6.07;;
80694;SDS011;70059;42.702;23.312;2024-03-29T04:34:36;6.70;;;5.10;;
80694;SDS011;70059;42.702;23.312;2024-03-29T04:37:03;9.63;;;5.60;;
80694;SDS011;70059;42.702;23.312;2024-03-29T04:39:29;10.48;;;5.28;;
80694;SDS011;70059;42.702;23.312;2024-03-29T04:41:55;7.93;;;5.10;;
80694;SDS011;70059;42.702;23.312;2024-03-29T04:44:24;10.95;;;5.43;;
80694;SDS011;70059;42.702;23.312;2024-03-29T04:46:51;8.45;;;5.15;;
80694;SDS011;70059;42.702;23.312;2024-03-29T04:49:22;13.25;;;5.68;;
80694;SDS011;70059;42.702;23.312;2024-03-29T04:51:55;11.45;;;5.35;;
80694;SDS011;70059;42.702;23.312;2024-03-29T04:54:25;15.27;;;6.00;;
80694;SDS011;70059;42.702;23.312;2024-03-29T04:56:54;15.98;;;6.93;;
80694;SDS011;70059;42.702;23.312;2024-03-29T04:59:20;23.45;;;6.10;;
80694;SDS011;70059;42.702;23.312;2024-03-29T05:01:46;8.23;;;5.25;;
80694;SDS011;70059;42.702;23.312;2024-03-29T05:04:18;9.75;;;5.85;;
80694;SDS011;70059;42.702;23.312;2024-03-29T05:06:50;12.95;;;6.97;;
80694;SDS011;70059;42.702;23.312;2024-03-29T05:09:23;14.02;;;7.53;;
80694;SDS011;70059;42.702;23.312;2024-03-29T05:11:59;10.45;;;6.88;;
80694;SDS011;70059;42.702;23.312;2024-03-29T05:14:24;11.05;;;6.25;;
80694;SDS011;70059;42.702;23.312;2024-03-29T05:17:08;12.52;;;6.30;;
80694;SDS011;70059;42.702;23.312;2024-03-29T05:19:45;10.88;;;6.43;;
80694;SDS011;70059;42.702;23.312;2024-03-29T05:25:40;12.55;;;6.60;;
80694;SDS011;70059;42.702;23.312;2024-03-29T05:28:20;15.25;;;7.35;;
80694;SDS011;70059;42.702;23.312;2024-03-29T05:33:58;20.60;;;8.73;;
80694;SDS011;70059;42.702;23.312;2024-03-29T05:36:33;12.68;;;7.60;;
80694;SDS011;70059;42.702;23.312;2024-03-29T05:39:01;12.05;;;7.57;;
80694;SDS011;70059;42.702;23.312;2024-03-29T05:41:31;16.13;;;9.07;;
80694;SDS011;70059;42.702;23.312;2024-03-29T05:44:03;12.88;;;8.20;;
80694;SDS011;70059;42.702;23.312;2024-03-29T05:46:39;14.05;;;7.10;;
80694;SDS011;70059;42.702;23.312;2024-03-29T05:49:10;17.05;;;7.90;;
80694;SDS011;70059;42.702;23.312;2024-03-29T05:51:37;14.90;;;7.50;;
80694;SDS011;70059;42.702;23.312;2024-03-29T05:54:07;10.27;;;7.00;;
80694;SDS011;70059;42.702;23.312;2024-03-29T05:56:35;12.43;;;7.13;;
80694;SDS011;70059;42.702;23.312;2024-03-29T05:59:01;14.43;;;7.25;;
80694;SDS011;70059;42.702;23.312;2024-03-29T06:01:29;10.88;;;6.72;;
80694;SDS011;70059;42.702;23.312;2024-03-29T06:03:58;13.55;;;7.10;;
80694;SDS011;70059;42.702;23.312;2024-03-29T06:06:37;20.08;;;6.70;;
80694;SDS011;70059;42.702;23.312;2024-03-29T06:09:12;12.07;;;6.90;;
80694;SDS011;70059;42.702;23.312;2024-03-29T06:12:09;19.80;;;7.53;;
80694;SDS011;70059;42.702;23.312;2024-03-29T06:14:52;15.70;;;7.78;;
80694;SDS011;70059;42.702;23.312;2024-03-29T06:24:35;13.68;;;7.10;;
80694;SDS011;70059;42.702;23.312;2024-03-29T06:27:14;18.02;;;7.65;;
80694;SDS011;70059;42.702;23.312;2024-03-29T06:29:53;13.68;;;7.85;;
80694;SDS011;70059;42.702;23.312;2024-03-29T06:32:46;13.50;;;6.75;;
80694;SDS011;70059;42.702;23.312;2024-03-29T06:35:15;8.63;;;6.07;;
80694;SDS011;70059;42.702;23.312;2024-03-29T06:37:40;16.27;;;6.32;;
80694;SDS011;70059;42.702;23.312;2024-03-29T06:40:07;14.88;;;6.13;;
80694;SDS011;70059;42.702;23.312;2024-03-29T06:42:48;11.48;;;6.40;;
80694;SDS011;70059;42.702;23.312;2024-03-29T06:45:14;10.57;;;5.93;;
80694;SDS011;70059;42.702;23.312;2024-03-29T06:47:42;9.73;;;6.07;;
80694;SDS011;70059;42.702;23.312;2024-03-29T06:50:10;11.80;;;5.63;;
80694;SDS011;70059;42.702;23.312;2024-03-29T06:55:13;7.43;;;5.50;;
80694;SDS011;70059;42.702;23.312;2024-03-29T06:57:41;11.50;;;5.50;;
80694;SDS011;70059;42.702;23.312;2024-03-29T07:00:13;5.97;;;4.82;;
80694;SDS011;70059;42.702;23.312;2024-03-29T07:02:45;6.72;;;5.20;;
80694;SDS011;70059;42.702;23.312;2024-03-29T07:05:22;7.30;;;5.18;;
80694;SDS011;70059;42.702;23.312;2024-03-29T07:07:57;7.47;;;5.18;;
80694;SDS011;70059;42.702;23.312;2024-03-29T07:10:25;11.57;;;5.55;;
80694;SDS011;70059;42.702;23.312;2024-03-29T07:13:03;7.47;;;5.32;;
80694;SDS011;70059;42.702;23.312;2024-03-29T07:15:41;6.40;;;5.57;;
80694;SDS011;70059;42.702;23.312;2024-03-29T07:18:15;10.63;;;5.47;;
80694;SDS011;70059;42.702;23.312;2024-03-29T07:23:14;14.90;;;6.40;;
80694;SDS011;70059;42.702;23.312;2024-03-29T07:25:40;6.28;;;5.35;;
80694;SDS011;70059;42.702;23.312;2024-03-29T07:28:06;6.40;;;5.80;;
80694;SDS011;70059;42.702;23.312;2024-03-29T07:30:40;7.22;;;6.43;;
80694;SDS011;70059;42.702;23.312;2024-03-29T07:33:07;13.45;;;6.25;;
80694;SDS011;70059;42.702;23.312;2024-03-29T07:35:36;7.97;;;5.78;;
80694;SDS011;70059;42.702;23.312;2024-03-29T07:38:06;6.85;;;5.72;;
80694;SDS011;70059;42.702;23.312;2024-03-29T07:40:35;6.80;;;6.13;;
80694;SDS011;70059;42.702;23.312;2024-03-29T07:43:11;8.05;;;5.85;;
80694;SDS011;70059;42.702;23.312;2024-03-29T07:45:41;6.72;;;6.13;;
80694;SDS011;70059;42.702;23.312;2024-03-29T07:48:34;6.80;;;6.07;;
80694;SDS011;70059;42.702;23.312;2024-03-29T07:51:06;10.60;;;7.63;;
80694;SDS011;70059;42.702;23.312;2024-03-29T07:53:51;8.98;;;7.40;;
80694;SDS011;70059;42.702;23.312;2024-03-29T07:56:46;7.00;;;6.40;;
80694;SDS011;70059;42.702;23.312;2024-03-29T07:59:21;8.88;;;6.47;;
80694;SDS011;70059;42.702;23.312;2024-03-29T08:01:49;6.57;;;6.07;;
80694;SDS011;70059;42.702;23.312;2024-03-29T08:04:31;9.88;;;8.02;;
80694;SDS011;70059;42.702;23.312;2024-03-29T08:06:56;7.07;;;6.35;;
80694;SDS011;70059;42.702;23.312;2024-03-29T08:09:34;7.97;;;6.75;;
80694;SDS011;70059;42.702;23.312;2024-03-29T08:12:04;7.57;;;6.88;;
80694;SDS011;70059;42.702;23.312;2024-03-29T08:14:40;9.18;;;6.60;;
80694;SDS011;70059;42.702;23.312;2024-03-29T08:17:14;7.30;;;6.53;;
80694;SDS011;70059;42.702;23.312;2024-03-29T08:19:43;8.48;;;7.57;;
80694;SDS011;70059;42.702;23.312;2024-03-29T08:22:08;7.57;;;6.93;;
80694;SDS011;70059;42.702;23.312;2024-03-29T08:24:46;6.57;;;5.95;;
80694;SDS011;70059;42.702;23.312;2024-03-29T08:27:17;7.78;;;6.97;;
80694;SDS011;70059;42.702;23.312;2024-03-29T08:29:43;6.95;;;6.28;;
80694;SDS011;70059;42.702;23.312;2024-03-29T08:32:11;7.00;;;6.40;;
80694;SDS011;70059;42.702;23.312;2024-03-29T08:34:37;11.80;;;6.88;;
80694;SDS011;70059;42.702;23.312;2024-03-29T08:37:03;7.53;;;6.82;;
80694;SDS011;70059;42.702;23.312;2024-03-29T08:39:30;7.00;;;6.40;;
80694;SDS011;70059;42.702;23.312;2024-03-29T08:41:56;9.23;;;7.50;;
80694;SDS011;70059;42.702;23.312;2024-03-29T08:47:36;8.23;;;7.22;;
80694;SDS011;70059;42.702;23.312;2024-03-29T08:50:02;7.75;;;7.13;;
80694;SDS011;70059;42.702;23.312;2024-03-29T08:52:35;8.00;;;7.30;;
80694;SDS011;70059;42.702;23.312;2024-03-29T08:55:18;9.65;;;6.45;;
80694;SDS011;70059;42.702;23.312;2024-03-29T09:04:07;7.55;;;6.85;;
80694;SDS011;70059;42.702;23.312;2024-03-29T09:06:38;8.45;;;7.50;;
80694;SDS011;70059;42.702;23.312;2024-03-29T09:09:13;8.52;;;7.70;;
80694;SDS011;70059;42.702;23.312;2024-03-29T09:11:44;8.60;;;7.65;;
80694;SDS011;70059;42.702;23.312;2024-03-29T09:14:32;8.20;;;7.40;;
80694;SDS011;70059;42.702;23.312;2024-03-29T09:17:01;7.40;;;6.80;;
80694;SDS011;70059;42.702;23.312;2024-03-29T09:19:29;7.85;;;7.13;;
80694;SDS011;70059;42.702;23.312;2024-03-29T09:22:02;7.25;;;6.53;;
80694;SDS011;70059;42.702;23.312;2024-03-29T09:24:28;6.85;;;6.22;;
80694;SDS011;70059;42.702;23.312;2024-03-29T09:26:54;7.03;;;6.50;;
80694;SDS011;70059;42.702;23.312;2024-03-29T09:29:20;7.25;;;6.60;;
80694;SDS011;70059;42.702;23.312;2024-03-29T09:31:46;10.70;;;7.25;;
80694;SDS011;70059;42.702;23.312;2024-03-29T09:34:20;7.90;;;7.10;;
80694;SDS011;70059;42.702;23.312;2024-03-29T09:36:48;7.40;;;6.70;;
80694;SDS011;70059;42.702;23.312;2024-03-29T09:39:20;8.30;;;7.53;;
80694;SDS011;70059;42.702;23.312;2024-03-29T09:45:03;8.90;;;7.72;;
80694;SDS011;70059;42.702;23.312;2024-03-29T09:47:35;8.18;;;7.38;;
80694;SDS011;70059;42.702;23.312;2024-03-29T09:50:07;10.48;;;7.90;;
80694;SDS011;70059;42.702;23.312;2024-03-29T09:52:34;8.60;;;7.90;;
80694;SDS011;70059;42.702;23.312;2024-03-29T09:55:08;10.57;;;7.80;;
80694;SDS011;70059;42.702;23.312;2024-03-29T09:57:49;9.90;;;7.50;;
80694;SDS011;70059;42.702;23.312;2024-03-29T10:00:27;11.63;;;7.93;;
80694;SDS011;70059;42.702;23.312;2024-03-29T10:03:06;7.78;;;7.07;;
80694;SDS011;70059;42.702;23.312;2024-03-29T10:06:04;11.13;;;7.90;;
80694;SDS011;70059;42.702;23.312;2024-03-29T10:08:36;8.27;;;7.50;;
80694;SDS011;70059;42.702;23.312;2024-03-29T10:11:05;8.80;;;7.87;;
80694;SDS011;70059;42.702;23.312;2024-03-29T10:22:46;8.60;;;7.22;;
80694;SDS011;70059;42.702;23.312;2024-03-29T10:27:47;8.15;;;7.28;;
80694;SDS011;70059;42.702;23.312;2024-03-29T10:30:15;7.57;;;6.75;;
80694;SDS011;70059;42.702;23.312;2024-03-29T10:32:46;8.45;;;7.65;;
80694;SDS011;70059;42.702;23.312;2024-03-29T10:35:11;7.68;;;6.88;;
80694;SDS011;70059;42.702;23.312;2024-03-29T10:37:44;8.73;;;7.60;;
80694;SDS011;70059;42.702;23.312;2024-03-29T10:40:10;12.18;;;10.38;;
80694;SDS011;70059;42.702;23.312;2024-03-29T10:42:40;20.20;;;8.52;;
80694;SDS011;70059;42.702;23.312;2024-03-29T10:45:07;12.65;;;9.98;;
80694;SDS011;70059;42.702;23.312;2024-03-29T10:47:33;9.43;;;7.55;;
80694;SDS011;70059;42.702;23.312;2024-03-29T10:49:59;11.30;;;8.75;;
80694;SDS011;70059;42.702;23.312;2024-03-29T10:52:26;9.25;;;8.07;;
80694;SDS011;70059;42.702;23.312;2024-03-29T10:54:52;7.15;;;6.45;;
80694;SDS011;70059;42.702;23.312;2024-03-29T10:57:25;7.95;;;7.25;;
80694;SDS011;70059;42.702;23.312;2024-03-29T11:05:34;8.52;;;7.30;;
80694;SDS011;70059;42.702;23.312;2024-03-29T11:08:04;7.65;;;7.05;;
80694;SDS011;70059;42.702;23.312;2024-03-29T11:15:36;8.80;;;6.88;;
80694;SDS011;70059;42.702;23.312;2024-03-29T11:18:04;7.88;;;7.15;;
80694;SDS011;70059;42.702;23.312;2024-03-29T11:20:32;9.27;;;7.30;;
80694;SDS011;70059;42.702;23.312;2024-03-29T11:23:09;8.25;;;7.47;;
80694;SDS011;70059;42.702;23.312;2024-03-29T11:25:43;11.45;;;7.55;;
80694;SDS011;70059;42.702;23.312;2024-03-29T11:28:29;10.35;;;7.70;;
80694;SDS011;70059;42.702;23.312;2024-03-29T11:31:08;9.25;;;7.60;;
80694;SDS011;70059;42.702;23.312;2024-03-29T11:33:35;10.48;;;7.88;;
80694;SDS011;70059;42.702;23.312;2024-03-29T11:38:39;8.13;;;7.30;;
80694;SDS011;70059;42.702;23.312;2024-03-29T11:41:10;8.63;;;7.70;;
80694;SDS011;70059;42.702;23.312;2024-03-29T11:43:48;8.15;;;7.40;;
80694;SDS011;70059;42.702;23.312;2024-03-29T11:46:18;8.88;;;7.75;;
80694;SDS011;70059;42.702;23.312;2024-03-29T11:48:52;9.77;;;8.70;;
80694;SDS011;70059;42.702;23.312;2024-03-29T11:51:22;9.43;;;8.15;;
80694;SDS011;70059;42.702;23.312;2024-03-29T11:53:51;9.05;;;8.15;;
80694;SDS011;70059;42.702;23.312;2024-03-29T11:56:18;8.10;;;7.40;;
80694;SDS011;70059;42.702;23.312;2024-03-29T11:58:44;8.40;;;7.70;;
80694;SDS011;70059;42.702;23.312;2024-03-29T12:01:11;8.15;;;7.35;;
80694;SDS011;70059;42.702;23.312;2024-03-29T12:03:43;8.15;;;7.47;;
80694;SDS011;70059;42.702;23.312;2024-03-29T12:06:09;8.82;;;8.02;;
80694;SDS011;70059;42.702;23.312;2024-03-29T12:08:37;10.45;;;7.85;;
80694;SDS011;70059;42.702;23.312;2024-03-29T12:11:04;9.07;;;7.63;;
80694;SDS011;70059;42.702;23.312;2024-03-29T12:13:31;11.55;;;8.20;;
80694;SDS011;70059;42.702;23.312;2024-03-29T12:15:57;8.68;;;7.78;;
80694;SDS011;70059;42.702;23.312;2024-03-29T12:18:24;9.10;;;7.90;;
80694;SDS011;70059;42.702;23.312;2024-03-29T12:20:51;9.35;;;8.15;;
80694;SDS011;70059;42.702;23.312;2024-03-29T12:23:20;10.35;;;8.20;;
80694;SDS011;70059;42.702;23.312;2024-03-29T12:25:47;10.63;;;8.70;;
80694;SDS011;70059;42.702;23.312;2024-03-29T12:28:14;10.55;;;7.88;;
80694;SDS011;70059;42.702;23.312;2024-03-29T12:30:44;8.80;;;7.90;;
80694;SDS011;70059;42.702;23.312;2024-03-29T12:33:13;7.63;;;7.03;;
80694;SDS011;70059;42.702;23.312;2024-03-29T12:35:45;9.85;;;8.10;;
80694;SDS011;70059;42.702;23.312;2024-03-29T12:38:15;13.68;;;7.75;;
80694;SDS011;70059;42.702;23.312;2024-03-29T12:40:42;8.68;;;7.80;;
80694;SDS011;70059;42.702;23.312;2024-03-29T12:43:20;10.00;;;8.73;;
80694;SDS011;70059;42.702;23.312;2024-03-29T12:45:47;9.52;;;8.57;;
80694;SDS011;70059;42.702;23.312;2024-03-29T12:48:16;9.23;;;8.32;;
80694;SDS011;70059;42.702;23.312;2024-03-29T12:50:46;10.98;;;8.07;;
80694;SDS011;70059;42.702;23.312;2024-03-29T12:53:13;8.30;;;7.47;;
80694;SDS011;70059;42.702;23.312;2024-03-29T12:55:40;15.32;;;8.80;;
80694;SDS011;70059;42.702;23.312;2024-03-29T12:58:17;8.48;;;7.70;;
80694;SDS011;70059;42.702;23.312;2024-03-29T13:00:47;8.25;;;7.55;;
80694;SDS011;70059;42.702;23.312;2024-03-29T13:03:13;8.85;;;8.10;;
80694;SDS011;70059;42.702;23.312;2024-03-29T13:05:39;8.63;;;7.85;;
80694;SDS011;70059;42.702;23.312;2024-03-29T13:08:07;11.13;;;8.10;;
80694;SDS011;70059;42.702;23.312;2024-03-29T13:10:37;12.35;;;8.07;;
80694;SDS011;70059;42.702;23.312;2024-03-29T13:13:04;10.10;;;7.70;;
80694;SDS011;70059;42.702;23.312;2024-03-29T13:15:32;10.77;;;7.65;;
80694;SDS011;70059;42.702;23.312;2024-03-29T13:17:59;10.53;;;7.40;;
80694;SDS011;70059;42.702;23.312;2024-03-29T13:20:25;13.10;;;7.70;;
80694;SDS011;70059;42.702;23.312;2024-03-29T13:22:51;9.23;;;7.28;;
80694;SDS011;70059;42.702;23.312;2024-03-29T13:25:19;7.88;;;7.07;;
80694;SDS011;70059;42.702;23.312;2024-03-29T13:27:47;8.43;;;7.25;;
80694;SDS011;70059;42.702;23.312;2024-03-29T13:30:17;8.10;;;7.30;;
80694;SDS011;70059;42.702;23.312;2024-03-29T13:32:42;8.40;;;7.60;;
80694;SDS011;70059;42.702;23.312;2024-03-29T13:35:11;8.40;;;7.60;;
80694;SDS011;70059;42.702;23.312;2024-03-29T13:37:41;7.70;;;6.95;;
80694;SDS011;70059;42.702;23.312;2024-03-29T13:40:14;8.13;;;7.45;;
80694;SDS011;70059;42.702;23.312;2024-03-29T13:42:47;17.08;;;8.20;;
80694;SDS011;70059;42.702;23.312;2024-03-29T13:45:14;8.75;;;7.80;;
80694;SDS011;70059;42.702;23.312;2024-03-29T13:47:40;7.28;;;6.78;;
80694;SDS011;70059;42.702;23.312;2024-03-29T13:50:07;7.97;;;6.90;;
80694;SDS011;70059;42.702;23.312;2024-03-29T13:52:34;8.10;;;7.43;;
80694;SDS011;70059;42.702;23.312;2024-03-29T13:55:01;14.30;;;8.00;;
80694;SDS011;70059;42.702;23.312;2024-03-29T13:57:28;8.05;;;7.35;;
80694;SDS011;70059;42.702;23.312;2024-03-29T13:59:54;10.50;;;7.68;;
80694;SDS011;70059;42.702;23.312;2024-03-29T14:02:20;8.20;;;7.60;;
80694;SDS011;70059;42.702;23.312;2024-03-29T14:04:47;8.70;;;7.85;;
80694;SDS011;70059;42.702;23.312;2024-03-29T14:07:21;7.97;;;7.15;;
80694;SDS011;70059;42.702;23.312;2024-03-29T14:09:50;8.40;;;7.60;;
80694;SDS011;70059;42.702;23.312;2024-03-29T14:12:16;8.55;;;7.50;;
80694;SDS011;70059;42.702;23.312;2024-03-29T14:14:43;8.43;;;7.80;;
80694;SDS011;70059;42.702;23.312;2024-03-29T14:17:13;9.07;;;8.32;;
80694;SDS011;70059;42.702;23.312;2024-03-29T14:19:39;8.00;;;7.35;;
80694;SDS011;70059;42.702;23.312;2024-03-29T14:22:05;7.43;;;6.93;;
80694;SDS011;70059;42.702;23.312;2024-03-29T14:24:32;8.40;;;6.60;;
80694;SDS011;70059;42.702;23.312;2024-03-29T14:27:01;7.47;;;6.85;;
80694;SDS011;70059;42.702;23.312;2024-03-29T14:29:28;7.53;;;6.82;;
80694;SDS011;70059;42.702;23.312;2024-03-29T14:31:54;8.23;;;7.40;;
80694;SDS011;70059;42.702;23.312;2024-03-29T14:34:20;8.60;;;6.57;;
80694;SDS011;70059;42.702;23.312;2024-03-29T14:36:47;7.10;;;6.50;;
80694;SDS011;70059;42.702;23.312;2024-03-29T14:39:13;8.70;;;6.50;;
80694;SDS011;70059;42.702;23.312;2024-03-29T14:41:39;8.23;;;7.40;;
80694;SDS011;70059;42.702;23.312;2024-03-29T14:44:08;7.00;;;6.40;;
80694;SDS011;70059;42.702;23.312;2024-03-29T14:46:40;7.10;;;6.50;;
80694;SDS011;70059;42.702;23.312;2024-03-29T14:49:06;7.03;;;6.43;;
80694;SDS011;70059;42.702;23.312;2024-03-29T14:51:36;10.13;;;6.45;;
80694;SDS011;70059;42.702;23.312;2024-03-29T14:54:03;13.07;;;6.57;;
80694;SDS011;70059;42.702;23.312;2024-03-29T14:56:29;6.40;;;5.78;;
80694;SDS011;70059;42.702;23.312;2024-03-29T14:58:57;12.80;;;9.57;;
80694;SDS011;70059;42.702;23.312;2024-03-29T15:01:30;10.88;;;7.72;;
80694;SDS011;70059;42.702;23.312;2024-03-29T15:03:56;7.70;;;7.00;;
80694;SDS011;70059;42.702;23.312;2024-03-29T15:06:22;8.18;;;6.63;;
80694;SDS011;70059;42.702;23.312;2024-03-29T15:08:49;7.75;;;5.78;;
80694;SDS011;70059;42.702;23.312;2024-03-29T15:11:18;8.45;;;6.88;;
80694;SDS011;70059;42.702;23.312;2024-03-29T15:13:44;9.10;;;6.40;;
80694;SDS011;70059;42.702;23.312;2024-03-29T15:16:10;8.18;;;6.28;;
80694;SDS011;70059;42.702;23.312;2024-03-29T15:18:43;6.57;;;5.85;;
80694;SDS011;70059;42.702;23.312;2024-03-29T15:21:09;6.43;;;5.65;;
80694;SDS011;70059;42.702;23.312;2024-03-29T15:23:35;11.57;;;6.88;;
80694;SDS011;70059;42.702;23.312;2024-03-29T15:26:01;11.57;;;6.32;;
80694;SDS011;70059;42.702;23.312;2024-03-29T15:28:28;6.70;;;6.00;;
80694;SDS011;70059;42.702;23.312;2024-03-29T15:31:16;6.93;;;6.32;;
80694;SDS011;70059;42.702;23.312;2024-03-29T15:33:45;9.13;;;7.35;;
80694;SDS011;70059;42.702;23.312;2024-03-29T15:36:12;10.65;;;7.30;;
80694;SDS011;70059;42.702;23.312;2024-03-29T15:38:38;10.85;;;7.40;;